Time;durP1;ratioP1;P1;durP2;ratioP2;P2;SDS_P1;SDS_P2;PMS_P1;PMS_P2;Temp;Humidity;BMP_temperature;BMP_pressure;BME280_temperature;BME280_humidity;BME280_pressure;Samples;Min_cycle;Max_cycle;Signal;HPM_P1;HPM_P2
2022/09/04 00:02:39;;;;;;;43.40;19.02;;;;;;;;;;5055523;28;20200;-59
2022/09/04 00:05:21;;;;;;;29.45;14.93;;;;;;;;;;5055287;28;20204;-59
2022/09/04 00:08:23;;;;;;;32.33;16.10;;;;;;;;;;5038155;28;20242;-59
2022/09/04 00:10:55;;;;;;;25.90;14.32;;;;;;;;;;4994187;28;20736;-58
2022/09/04 00:13:28;;;;;;;25.88;12.40;;;;;;;;;;5028369;28;20211;-59
2022/09/04 00:16:05;;;;;;;24.35;11.00;;;;;;;;;;5038097;28;20543;-60
2022/09/04 00:18:42;;;;;;;15.77;9.45;;;;;;;;;;5037754;28;20204;-59
2022/09/04 00:21:11;;;;;;;18.60;9.70;;;;;;;;;;5055070;28;20215;-59
2022/09/04 00:24:09;;;;;;;25.88;12.18;;;;;;;;;;5054725;28;20624;-59
2022/09/04 00:26:39;;;;;;;25.08;13.68;;;;;;;;;;4958671;28;20206;-59
2022/09/04 00:29:58;;;;;;;12.98;7.93;;;;;;;;;;4974439;28;20562;-59
2022/09/04 00:32:44;;;;;;;19.70;10.73;;;;;;;;;;4963255;28;20206;-59
2022/09/04 00:35:24;;;;;;;25.50;13.00;;;;;;;;;;4974337;28;20218;-59
2022/09/04 00:38:00;;;;;;;22.38;12.45;;;;;;;;;;4958464;28;20298;-59
2022/09/04 00:40:36;;;;;;;30.38;16.52;;;;;;;;;;4958879;28;20201;-59
2022/09/04 00:43:21;;;;;;;33.05;16.73;;;;;;;;;;4958365;28;20210;-60
2022/09/04 00:46:11;;;;;;;26.83;15.50;;;;;;;;;;4958397;28;20329;-58
2022/09/04 00:49:16;;;;;;;39.42;19.50;;;;;;;;;;4974088;28;21003;-59
2022/09/04 00:51:55;;;;;;;20.23;10.57;;;;;;;;;;4974221;28;20206;-59
2022/09/04 00:54:41;;;;;;;18.15;10.10;;;;;;;;;;4974329;28;20207;-59
2022/09/04 00:57:26;;;;;;;23.48;11.27;;;;;;;;;;4974320;28;20199;-59
2022/09/04 01:00:15;;;;;;;26.80;12.52;;;;;;;;;;4974296;28;20194;-59
2022/09/04 01:02:54;;;;;;;16.35;9.15;;;;;;;;;;4991095;28;20258;-59
2022/09/04 01:05:36;;;;;;;11.63;6.70;;;;;;;;;;5054499;28;20184;-59
2022/09/04 01:08:06;;;;;;;7.93;4.97;;;;;;;;;;5054126;28;20668;-59
2022/09/04 01:10:54;;;;;;;8.15;4.97;;;;;;;;;;5054190;28;20227;-59
2022/09/04 01:13:41;;;;;;;11.52;6.68;;;;;;;;;;5054318;28;20210;-59
2022/09/04 01:16:13;;;;;;;14.05;6.45;;;;;;;;;;5054385;28;20213;-58
2022/09/04 01:18:54;;;;;;;10.57;6.00;;;;;;;;;;5036830;28;20679;-59
2022/09/04 01:21:49;;;;;;;16.85;7.88;;;;;;;;;;5054101;28;20204;-59
2022/09/04 01:24:47;;;;;;;13.25;6.50;;;;;;;;;;5036527;28;20687;-59
2022/09/04 01:27:23;;;;;;;9.57;6.07;;;;;;;;;;5054228;28;20200;-59
2022/09/04 01:30:03;;;;;;;10.00;6.18;;;;;;;;;;5054285;28;20203;-59
2022/09/04 01:32:42;;;;;;;13.52;6.10;;;;;;;;;;5054554;28;20192;-59
2022/09/04 01:35:30;;;;;;;28.10;10.40;;;;;;;;;;5036869;28;20204;-60
2022/09/04 01:38:00;;;;;;;23.30;11.45;;;;;;;;;;5054109;28;20208;-59
2022/09/04 01:40:34;;;;;;;17.30;9.32;;;;;;;;;;5053996;28;20204;-59
2022/09/04 01:43:06;;;;;;;15.88;8.52;;;;;;;;;;5038227;28;20328;-56
2022/09/04 01:45:45;;;;;;;18.60;8.30;;;;;;;;;;5071113;28;20235;-58
2022/09/04 01:48:16;;;;;;;19.65;9.75;;;;;;;;;;5077246;28;20231;-59
2022/09/04 01:50:46;;;;;;;19.23;9.60;;;;;;;;;;5077625;28;20175;-59
2022/09/04 01:53:25;;;;;;;22.48;9.93;;;;;;;;;;5077568;28;20210;-59
2022/09/04 01:56:07;;;;;;;13.88;8.30;;;;;;;;;;5078321;28;20195;-59
2022/09/04 01:58:52;;;;;;;14.77;7.22;;;;;;;;;;5060352;28;20619;-59
2022/09/04 02:01:37;;;;;;;16.17;9.05;;;;;;;;;;5077101;28;20262;-58
2022/09/04 02:04:15;;;;;;;18.38;8.75;;;;;;;;;;5060474;28;20199;-59
2022/09/04 02:06:51;;;;;;;16.63;8.75;;;;;;;;;;5077138;28;20535;-58
2022/09/04 02:09:34;;;;;;;15.98;8.93;;;;;;;;;;5043170;28;20219;-59
2022/09/04 02:12:43;;;;;;;9.43;5.03;;;;;;;;;;5077263;28;20198;-59
2022/09/04 02:15:29;;;;;;;10.15;6.50;;;;;;;;;;5059963;28;20199;-59
2022/09/04 02:18:15;;;;;;;8.20;4.78;;;;;;;;;;5076919;28;20524;-59
2022/09/04 02:20:57;;;;;;;10.63;5.88;;;;;;;;;;5059573;28;20203;-58
2022/09/04 02:23:34;;;;;;;7.28;4.97;;;;;;;;;;5077242;28;20563;-59
2022/09/04 02:26:33;;;;;;;5.07;3.60;;;;;;;;;;5077196;28;20218;-59
2022/09/04 02:29:00;;;;;;;9.32;5.20;;;;;;;;;;5059609;28;20251;-59
2022/09/04 02:31:37;;;;;;;7.45;5.13;;;;;;;;;;5076629;28;20647;-60
2022/09/04 02:34:12;;;;;;;11.65;6.63;;;;;;;;;;5059803;28;20195;-59
2022/09/04 02:36:50;;;;;;;12.45;6.95;;;;;;;;;;5059546;28;20203;-58
2022/09/04 02:39:55;;;;;;;11.30;7.00;;;;;;;;;;5076796;28;20226;-59
2022/09/04 02:42:32;;;;;;;9.38;5.90;;;;;;;;;;5076691;28;20211;-59
2022/09/04 02:45:02;;;;;;;7.28;5.10;;;;;;;;;;5059097;28;20333;-58
2022/09/04 02:47:41;;;;;;;5.43;3.92;;;;;;;;;;5076529;28;20187;-59
2022/09/04 02:50:37;;;;;;;10.88;4.90;;;;;;;;;;5075750;28;20282;-58
2022/09/04 02:53:16;;;;;;;10.63;5.47;;;;;;;;;;5074916;28;20632;-58
2022/09/04 02:56:12;;;;;;;10.88;5.43;;;;;;;;;;5073769;28;20207;-59
2022/09/04 02:59:11;;;;;;;10.85;7.13;;;;;;;;;;5057403;28;20308;-56
2022/09/04 03:01:43;;;;;;;13.90;8.00;;;;;;;;;;5074310;28;20226;-55
2022/09/04 03:04:48;;;;;;;11.88;7.40;;;;;;;;;;5074899;28;20188;-59
2022/09/04 03:07:29;;;;;;;9.35;6.50;;;;;;;;;;5062552;28;20226;-59
2022/09/04 03:10:08;;;;;;;7.63;5.00;;;;;;;;;;5042512;28;20212;-58
2022/09/04 03:12:41;;;;;;;7.68;4.93;;;;;;;;;;5058383;28;20211;-59
2022/09/04 03:15:17;;;;;;;9.85;5.75;;;;;;;;;;5058773;28;20187;-59
2022/09/04 03:17:47;;;;;;;14.10;6.50;;;;;;;;;;5075358;28;20184;-58
2022/09/04 03:20:20;;;;;;;13.23;7.45;;;;;;;;;;5075482;28;20502;-58
2022/09/04 03:23:15;;;;;;;16.98;9.30;;;;;;;;;;5058245;28;20303;-59
2022/09/04 03:26:04;;;;;;;29.40;13.90;;;;;;;;;;5058028;28;20199;-59
2022/09/04 03:28:49;;;;;;;54.95;22.40;;;;;;;;;;5057978;28;20309;-59
2022/09/04 03:31:44;;;;;;;40.72;17.52;;;;;;;;;;5075623;28;20195;-59
2022/09/04 03:34:58;;;;;;;15.95;8.57;;;;;;;;;;5034629;28;20207;-59
2022/09/04 03:37:34;;;;;;;16.90;8.50;;;;;;;;;;5029448;28;20200;-59
2022/09/04 03:40:15;;;;;;;19.60;9.32;;;;;;;;;;5075120;28;20609;-57
2022/09/04 03:43:02;;;;;;;20.27;8.50;;;;;;;;;;5075159;28;20206;-58
2022/09/04 03:46:02;;;;;;;20.98;9.40;;;;;;;;;;5075072;28;20309;-58
2022/09/04 03:48:45;;;;;;;26.52;10.85;;;;;;;;;;5074943;28;20218;-58
2022/09/04 03:52:00;;;;;;;22.02;9.88;;;;;;;;;;5075103;28;20230;-58
2022/09/04 03:54:50;;;;;;;16.00;8.07;;;;;;;;;;4983860;28;20222;-56
2022/09/04 03:58:02;;;;;;;12.95;7.30;;;;;;;;;;5063974;28;20207;-56
2022/09/04 04:00:40;;;;;;;17.20;7.72;;;;;;;;;;5073005;28;20652;-58
2022/09/04 04:03:30;;;;;;;37.38;13.98;;;;;;;;;;5057645;28;20288;-58
2022/09/04 04:06:08;;;;;;;37.92;14.57;;;;;;;;;;5074366;28;20196;-56
2022/09/04 04:09:11;;;;;;;30.00;13.00;;;;;;;;;;5074950;28;20292;-59
2022/09/04 04:11:57;;;;;;;15.23;5.97;;;;;;;;;;5074287;28;20527;-56
2022/09/04 04:14:50;;;;;;;10.60;5.68;;;;;;;;;;5074535;28;20187;-58
2022/09/04 04:17:30;;;;;;;7.97;5.15;;;;;;;;;;5066470;28;20211;-59
2022/09/04 04:20:10;;;;;;;10.15;5.00;;;;;;;;;;5062659;28;20625;-59
2022/09/04 04:23:16;;;;;;;7.90;4.65;;;;;;;;;;5062887;28;20191;-60
2022/09/04 04:25:58;;;;;;;7.10;5.18;;;;;;;;;;5063545;28;20291;-60
2022/09/04 04:28:58;;;;;;;8.35;5.47;;;;;;;;;;5046709;28;20216;-59
2022/09/04 04:31:43;;;;;;;7.57;4.70;;;;;;;;;;5046836;28;20632;-61
2022/09/04 04:34:39;;;;;;;4.63;3.97;;;;;;;;;;5064362;28;20185;-59
2022/09/04 04:37:20;;;;;;;4.97;3.90;;;;;;;;;;5045619;28;20644;-60
2022/09/04 04:40:08;;;;;;;3.95;3.40;;;;;;;;;;5054225;28;20192;-59
2022/09/04 04:43:09;;;;;;;4.30;3.50;;;;;;;;;;5047515;28;20513;-60
2022/09/04 04:45:53;;;;;;;4.05;3.55;;;;;;;;;;4965366;28;20237;-59
2022/09/04 04:48:23;;;;;;;5.50;3.67;;;;;;;;;;4982837;28;20248;-60
2022/09/04 04:51:30;;;;;;;8.13;5.22;;;;;;;;;;4974098;28;20203;-60
2022/09/04 04:54:23;;;;;;;12.02;6.10;;;;;;;;;;4971580;28;20563;-59
2022/09/04 04:57:03;;;;;;;19.92;5.82;;;;;;;;;;4957910;28;20202;-58
2022/09/04 04:59:54;;;;;;;6.90;4.53;;;;;;;;;;4958421;28;20237;-60
2022/09/04 05:02:27;;;;;;;7.00;4.60;;;;;;;;;;4973532;28;20206;-59
2022/09/04 05:05:21;;;;;;;6.38;4.43;;;;;;;;;;4973875;28;20291;-60
2022/09/04 05:07:49;;;;;;;6.10;4.40;;;;;;;;;;4973860;28;20210;-60
2022/09/04 05:10:43;;;;;;;6.40;4.22;;;;;;;;;;4974022;28;20266;-60
2022/09/04 05:13:28;;;;;;;12.50;5.72;;;;;;;;;;4972380;28;20555;-60
2022/09/04 05:16:13;;;;;;;8.88;5.45;;;;;;;;;;4973635;28;20213;-60
2022/09/04 05:19:00;;;;;;;10.07;6.03;;;;;;;;;;4976607;28;20214;-60
2022/09/04 05:21:43;;;;;;;8.48;5.78;;;;;;;;;;5000152;28;20660;-60
2022/09/04 05:24:22;;;;;;;8.60;6.28;;;;;;;;;;5058111;28;20663;-61
2022/09/04 05:26:53;;;;;;;9.18;5.93;;;;;;;;;;5041041;28;20203;-60
2022/09/04 05:29:46;;;;;;;9.82;5.80;;;;;;;;;;5058184;28;20242;-60
2022/09/04 05:32:38;;;;;;;7.63;5.65;;;;;;;;;;5058205;28;20208;-59
2022/09/04 05:35:31;;;;;;;12.73;6.13;;;;;;;;;;5057939;28;20284;-60
2022/09/04 05:38:18;;;;;;;8.25;5.38;;;;;;;;;;5040741;28;20283;-60
2022/09/04 05:40:45;;;;;;;8.73;5.95;;;;;;;;;;5057556;28;20196;-60
2022/09/04 05:43:36;;;;;;;7.97;5.55;;;;;;;;;;5057728;28;20204;-60
2022/09/04 05:46:37;;;;;;;8.32;6.03;;;;;;;;;;5057657;28;20244;-58
2022/09/04 05:49:07;;;;;;;8.55;5.85;;;;;;;;;;5057847;28;20322;-60
2022/09/04 05:51:57;;;;;;;9.30;6.00;;;;;;;;;;5057917;28;20218;-60
2022/09/04 05:54:42;;;;;;;9.13;5.75;;;;;;;;;;5056672;28;20218;-61
2022/09/04 05:57:35;;;;;;;9.43;6.22;;;;;;;;;;5057509;28;20208;-61
2022/09/04 06:00:06;;;;;;;12.27;6.80;;;;;;;;;;5057415;28;20629;-61
2022/09/04 06:02:54;;;;;;;10.30;6.45;;;;;;;;;;5043267;28;20659;-58
2022/09/04 06:05:34;;;;;;;11.95;7.07;;;;;;;;;;5064795;28;20219;-58
2022/09/04 06:08:35;;;;;;;13.05;7.60;;;;;;;;;;5065742;28;20231;-59
2022/09/04 06:11:08;;;;;;;11.48;7.35;;;;;;;;;;5058513;28;20222;-58
2022/09/04 06:13:50;;;;;;;12.88;7.35;;;;;;;;;;5058239;28;20235;-60
2022/09/04 06:16:51;;;;;;;10.55;6.80;;;;;;;;;;5061947;28;20323;-57
2022/09/04 06:20:06;;;;;;;13.40;7.30;;;;;;;;;;5066196;28;20230;-58
2022/09/04 06:22:52;;;;;;;11.65;7.40;;;;;;;;;;5057966;28;20222;-58
2022/09/04 06:25:25;;;;;;;9.00;5.82;;;;;;;;;;5059161;28;20652;-59
2022/09/04 06:27:52;;;;;;;9.60;7.25;;;;;;;;;;5058809;28;20219;-61
2022/09/04 06:30:19;;;;;;;10.35;6.72;;;;;;;;;;5056549;28;20740;-58
2022/09/04 06:32:52;;;;;;;11.18;7.15;;;;;;;;;;5060492;28;20216;-58
2022/09/04 06:35:47;;;;;;;13.30;7.50;;;;;;;;;;5069389;28;20566;-57
2022/09/04 06:38:37;;;;;;;9.10;6.85;;;;;;;;;;5064573;28;20228;-57
2022/09/04 06:41:24;;;;;;;11.82;7.68;;;;;;;;;;5051375;28;20219;-58
2022/09/04 06:44:47;;;;;;;11.05;7.72;;;;;;;;;;5050029;28;20554;-56
2022/09/04 06:47:40;;;;;;;11.95;8.40;;;;;;;;;;4976889;28;20258;-59
2022/09/04 06:50:23;;;;;;;10.48;7.63;;;;;;;;;;4983367;28;20241;-58
2022/09/04 06:52:54;;;;;;;14.23;8.75;;;;;;;;;;4971745;28;20246;-59
2022/09/04 06:55:32;;;;;;;16.17;8.25;;;;;;;;;;4982363;28;20226;-59
2022/09/04 06:58:17;;;;;;;16.60;8.90;;;;;;;;;;4979267;28;20572;-59
2022/09/04 07:00:59;;;;;;;12.40;7.93;;;;;;;;;;4980952;28;20264;-60
2022/09/04 07:03:26;;;;;;;12.18;7.50;;;;;;;;;;4984488;28;20230;-59
2022/09/04 07:06:11;;;;;;;12.10;5.78;;;;;;;;;;4982920;28;20222;-58
2022/09/04 07:08:46;;;;;;;9.75;6.35;;;;;;;;;;4975999;28;20244;-60
2022/09/04 07:11:22;;;;;;;11.75;6.47;;;;;;;;;;4966988;28;20240;-60
2022/09/04 07:14:18;;;;;;;13.00;6.43;;;;;;;;;;4982985;28;20246;-60
2022/09/04 07:17:02;;;;;;;11.25;6.85;;;;;;;;;;4983063;28;20686;-58
2022/09/04 07:19:44;;;;;;;11.25;5.50;;;;;;;;;;4975855;28;20260;-58
2022/09/04 07:22:21;;;;;;;8.25;4.50;;;;;;;;;;4977731;28;20551;-59
2022/09/04 07:25:07;;;;;;;6.15;4.03;;;;;;;;;;5042462;28;20239;-58
2022/09/04 07:27:46;;;;;;;4.85;3.63;;;;;;;;;;5063353;28;20655;-58
2022/09/04 07:30:14;;;;;;;6.10;3.88;;;;;;;;;;5056481;28;20239;-58
2022/09/04 07:32:50;;;;;;;6.60;3.67;;;;;;;;;;5037898;28;20232;-57
2022/09/04 07:35:24;;;;;;;4.93;2.90;;;;;;;;;;5053728;28;20243;-56
2022/09/04 07:38:19;;;;;;;3.92;2.90;;;;;;;;;;5055428;28;20188;-56
2022/09/04 07:41:03;;;;;;;5.60;3.22;;;;;;;;;;5067374;28;20650;-57
2022/09/04 07:43:41;;;;;;;6.40;3.05;;;;;;;;;;5054504;28;20639;-57
2022/09/04 07:46:22;;;;;;;5.45;2.60;;;;;;;;;;5043276;28;20281;-57
2022/09/04 07:49:08;;;;;;;8.55;2.63;;;;;;;;;;5063136;28;20196;-57
2022/09/04 07:51:42;;;;;;;3.83;2.60;;;;;;;;;;5052564;28;20195;-56
2022/09/04 07:54:12;;;;;;;7.25;2.78;;;;;;;;;;5046587;28;20214;-53
2022/09/04 07:57:11;;;;;;;3.55;2.28;;;;;;;;;;5060589;28;20284;-57
2022/09/04 08:00:06;;;;;;;4.68;2.05;;;;;;;;;;5037814;28;20594;-56
2022/09/04 08:03:12;;;;;;;3.47;1.90;;;;;;;;;;5055309;28;20199;-57
2022/09/04 08:05:54;;;;;;;3.90;2.10;;;;;;;;;;5037637;28;20617;-56
2022/09/04 08:08:52;;;;;;;2.78;1.77;;;;;;;;;;5037648;28;20609;-56
2022/09/04 08:11:32;;;;;;;3.45;1.85;;;;;;;;;;5053641;28;20248;-57
2022/09/04 08:14:17;;;;;;;2.75;1.63;;;;;;;;;;5067008;28;20199;-57
2022/09/04 08:16:47;;;;;;;1.77;1.45;;;;;;;;;;5054202;28;20633;-57
2022/09/04 08:19:22;;;;;;;2.40;1.52;;;;;;;;;;5054633;28;20199;-56
2022/09/04 08:21:51;;;;;;;2.63;1.50;;;;;;;;;;5037386;28;20191;-57
2022/09/04 08:24:37;;;;;;;2.00;1.63;;;;;;;;;;5037181;28;20200;-57
2022/09/04 08:27:08;;;;;;;2.47;1.70;;;;;;;;;;5054859;28;20207;-56
2022/09/04 08:30:07;;;;;;;2.45;1.35;;;;;;;;;;5054727;28;20226;-57
2022/09/04 08:32:52;;;;;;;2.17;1.58;;;;;;;;;;5060120;28;20324;-56
2022/09/04 08:35:50;;;;;;;1.70;1.50;;;;;;;;;;5062977;28;20227;-57
2022/09/04 08:38:55;;;;;;;2.17;1.73;;;;;;;;;;5061467;28;20196;-57
2022/09/04 08:41:37;;;;;;;2.30;1.55;;;;;;;;;;5054391;28;20188;-57
2022/09/04 08:44:08;;;;;;;2.92;1.40;;;;;;;;;;5037190;28;20195;-56
2022/09/04 08:46:47;;;;;;;4.05;1.95;;;;;;;;;;5054550;28;20240;-57
2022/09/04 08:49:27;;;;;;;2.28;1.98;;;;;;;;;;5054285;28;20207;-57
2022/09/04 08:52:07;;;;;;;1.70;1.45;;;;;;;;;;5054469;28;20202;-57
2022/09/04 08:55:02;;;;;;;1.80;1.52;;;;;;;;;;5041117;28;20265;-57
2022/09/04 08:58:17;;;;;;;3.08;1.80;;;;;;;;;;5058454;28;20279;-57
2022/09/04 09:01:20;;;;;;;3.80;1.60;;;;;;;;;;5000769;28;20279;-57
2022/09/04 09:04:02;;;;;;;3.03;1.70;;;;;;;;;;5010666;28;20200;-57
2022/09/04 09:06:38;;;;;;;2.75;1.60;;;;;;;;;;5013079;28;20198;-57
2022/09/04 09:09:38;;;;;;;2.60;1.80;;;;;;;;;;5007652;28;20209;-58
2022/09/04 09:12:36;;;;;;;3.22;1.85;;;;;;;;;;5016108;28;20216;-56
2022/09/04 09:15:25;;;;;;;2.45;1.63;;;;;;;;;;4995473;28;20193;-57
2022/09/04 09:18:01;;;;;;;2.13;1.58;;;;;;;;;;4995635;28;20210;-56
2022/09/04 09:20:53;;;;;;;3.83;1.80;;;;;;;;;;4996231;28;20645;-57
2022/09/04 09:23:58;;;;;;;2.35;1.42;;;;;;;;;;4979737;28;20210;-56
2022/09/04 09:26:27;;;;;;;3.45;1.42;;;;;;;;;;4945804;28;20207;-57
2022/09/04 09:29:13;;;;;;;18.17;2.42;;;;;;;;;;4999134;28;20348;-56
2022/09/04 09:31:46;;;;;;;2.70;1.70;;;;;;;;;;4994584;28;20214;-57
2022/09/04 09:34:47;;;;;;;3.40;1.40;;;;;;;;;;5011208;28;20244;-57
2022/09/04 09:37:52;;;;;;;2.58;1.70;;;;;;;;;;5032762;28;20238;-57
2022/09/04 09:40:25;;;;;;;2.85;1.65;;;;;;;;;;4988328;28;20237;-57
2022/09/04 09:43:11;;;;;;;2.70;1.33;;;;;;;;;;4972188;28;20233;-57
2022/09/04 09:45:53;;;;;;;1.85;1.52;;;;;;;;;;5021583;28;20270;-57
2022/09/04 09:48:37;;;;;;;2.95;1.80;;;;;;;;;;5056785;28;20539;-58
2022/09/04 09:51:16;;;;;;;2.30;1.50;;;;;;;;;;5066891;28;20243;-58
2022/09/04 09:54:13;;;;;;;3.42;1.40;;;;;;;;;;5075909;28;20310;-58
2022/09/04 09:56:58;;;;;;;2.78;1.40;;;;;;;;;;5075734;28;20226;-58
2022/09/04 09:59:47;;;;;;;3.05;1.50;;;;;;;;;;5071286;28;20296;-58
2022/09/04 10:02:42;;;;;;;2.55;1.40;;;;;;;;;;5075962;28;20702;-58
2022/09/04 10:05:30;;;;;;;1.83;1.48;;;;;;;;;;5056247;28;20215;-57
2022/09/04 10:08:17;;;;;;;2.45;1.55;;;;;;;;;;5055787;28;20234;-58
2022/09/04 10:11:04;;;;;;;1.90;1.52;;;;;;;;;;5056411;28;20243;-57
2022/09/04 10:14:10;;;;;;;1.95;1.40;;;;;;;;;;5055531;28;20684;-57
2022/09/04 10:17:15;;;;;;;1.90;1.48;;;;;;;;;;4994198;28;20276;-57
2022/09/04 10:20:20;;;;;;;2.55;1.67;;;;;;;;;;4986053;28;20230;-57
2022/09/04 10:23:08;;;;;;;2.25;1.55;;;;;;;;;;5055352;28;20709;-57
2022/09/04 10:25:55;;;;;;;5.28;1.30;;;;;;;;;;5055330;28;20273;-58
2022/09/04 10:28:40;;;;;;;3.10;1.20;;;;;;;;;;5038693;28;20227;-57
2022/09/04 10:31:29;;;;;;;2.65;1.48;;;;;;;;;;5055835;28;20699;-57
2022/09/04 10:33:59;;;;;;;1.80;1.45;;;;;;;;;;5043586;28;20227;-58
2022/09/04 10:36:46;;;;;;;2.95;1.48;;;;;;;;;;5064873;28;20227;-57
2022/09/04 10:42:59;;;;;;;3.10;1.35;;;;;;;;;;5029726;28;20227;-57
2022/09/04 10:45:40;;;;;;;2.80;1.17;;;;;;;;;;5075332;28;20235;-57
2022/09/04 10:48:21;;;;;;;1.60;1.20;;;;;;;;;;5064805;28;20211;-57
2022/09/04 10:51:10;;;;;;;2.25;1.30;;;;;;;;;;5074936;28;20293;-58
2022/09/04 10:53:55;;;;;;;3.22;1.00;;;;;;;;;;5074818;28;20548;-58
2022/09/04 10:56:37;;;;;;;2.45;1.25;;;;;;;;;;5075612;28;20237;-58
2022/09/04 10:59:42;;;;;;;2.45;1.20;;;;;;;;;;5057820;28;20308;-58
2022/09/04 11:02:31;;;;;;;2.00;1.35;;;;;;;;;;5073630;28;20659;-58
2022/09/04 11:05:22;;;;;;;1.95;1.40;;;;;;;;;;5075989;28;20200;-57
2022/09/04 11:08:03;;;;;;;2.33;1.48;;;;;;;;;;5075795;28;20203;-57
2022/09/04 11:11:00;;;;;;;3.83;1.27;;;;;;;;;;5052324;28;20240;-57
2022/09/04 11:13:53;;;;;;;2.42;1.50;;;;;;;;;;5061560;28;20220;-58
2022/09/04 11:16:41;;;;;;;1.67;1.30;;;;;;;;;;5067119;28;20290;-58
2022/09/04 11:19:42;;;;;;;3.05;1.40;;;;;;;;;;5064632;28;20619;-58
2022/09/04 11:22:33;;;;;;;1.25;1.05;;;;;;;;;;5049027;28;20247;-58
2022/09/04 11:25:18;;;;;;;4.15;1.27;;;;;;;;;;5042657;28;20598;-57
2022/09/04 11:28:06;;;;;;;3.88;1.25;;;;;;;;;;5059781;28;20211;-57
2022/09/04 11:30:52;;;;;;;2.42;1.35;;;;;;;;;;5063690;28;20235;-57
2022/09/04 11:33:57;;;;;;;1.35;1.20;;;;;;;;;;5071044;28;20219;-53
2022/09/04 11:37:07;;;;;;;2.42;1.38;;;;;;;;;;5068475;28;20241;-53
2022/09/04 11:39:49;;;;;;;1.75;0.95;;;;;;;;;;5063752;28;20222;-55
2022/09/04 11:42:26;;;;;;;1.48;1.20;;;;;;;;;;5057530;28;20277;-53
2022/09/04 11:44:59;;;;;;;1.70;1.38;;;;;;;;;;5074583;28;20223;-53
2022/09/04 11:47:32;;;;;;;2.22;1.48;;;;;;;;;;5074239;28;20682;-55
2022/09/04 11:50:30;;;;;;;1.65;1.55;;;;;;;;;;5074174;28;20222;-51
2022/09/04 11:53:27;;;;;;;1.88;1.20;;;;;;;;;;5073297;28;20683;-54
2022/09/04 11:56:08;;;;;;;6.28;1.58;;;;;;;;;;5044238;28;20228;-52
2022/09/04 11:58:57;;;;;;;2.88;1.42;;;;;;;;;;5036144;28;20560;-56
2022/09/04 12:01:28;;;;;;;1.80;1.30;;;;;;;;;;5053101;28;20285;-52
2022/09/04 12:04:13;;;;;;;2.38;1.40;;;;;;;;;;5047708;28;20219;-56
2022/09/04 12:07:23;;;;;;;2.20;1.15;;;;;;;;;;5069398;28;20655;-54
2022/09/04 12:10:05;;;;;;;3.58;1.50;;;;;;;;;;5000570;28;20281;-54
2022/09/04 12:12:47;;;;;;;2.67;1.40;;;;;;;;;;5062632;28;20219;-55
2022/09/04 12:15:23;;;;;;;1.98;1.23;;;;;;;;;;5062504;28;20207;-55
2022/09/04 12:18:19;;;;;;;5.10;1.60;;;;;;;;;;5062390;28;20226;-53
2022/09/04 12:21:16;;;;;;;15.02;2.08;;;;;;;;;;5056236;28;20210;-58
2022/09/04 12:23:57;;;;;;;5.72;1.58;;;;;;;;;;4993688;28;20222;-56
2022/09/04 12:26:58;;;;;;;2.95;1.45;;;;;;;;;;5061735;28;20211;-57
2022/09/04 12:29:37;;;;;;;2.00;1.58;;;;;;;;;;5073975;28;20734;-57
2022/09/04 12:32:25;;;;;;;2.53;1.48;;;;;;;;;;5074290;28;20246;-57
2022/09/04 12:35:30;;;;;;;2.65;1.05;;;;;;;;;;5067757;28;20675;-57
2022/09/04 12:38:31;;;;;;;3.30;1.30;;;;;;;;;;5059600;28;20223;-57
2022/09/04 12:41:05;;;;;;;2.42;1.27;;;;;;;;;;5026000;28;20268;-55
2022/09/04 12:43:50;;;;;;;3.38;1.20;;;;;;;;;;5044596;28;20211;-58
2022/09/04 12:46:34;;;;;;;1.30;1.20;;;;;;;;;;5061872;28;20235;-55
2022/09/04 12:49:07;;;;;;;2.92;1.38;;;;;;;;;;5062215;28;20533;-58
2022/09/04 12:51:56;;;;;;;2.63;1.40;;;;;;;;;;5068756;28;20224;-58
2022/09/04 12:54:42;;;;;;;4.78;1.45;;;;;;;;;;5036156;28;20224;-58
2022/09/04 12:57:45;;;;;;;2.03;1.40;;;;;;;;;;5052052;28;20289;-58
2022/09/04 13:00:15;;;;;;;2.78;1.40;;;;;;;;;;4952295;28;20630;-58
2022/09/04 13:02:59;;;;;;;3.20;1.40;;;;;;;;;;5031355;28;20272;-58
2022/09/04 13:06:02;;;;;;;2.60;1.17;;;;;;;;;;5047794;28;20242;-58
2022/09/04 13:08:48;;;;;;;4.65;1.23;;;;;;;;;;5063468;28;20214;-58
2022/09/04 13:12:00;;;;;;;1.60;1.02;;;;;;;;;;5062247;28;20314;-58
2022/09/04 13:14:39;;;;;;;2.67;1.50;;;;;;;;;;5058981;28;20234;-58
2022/09/04 13:17:16;;;;;;;2.72;1.38;;;;;;;;;;5056100;28;20518;-58
2022/09/04 13:20:21;;;;;;;3.60;1.48;;;;;;;;;;5061205;28;20231;-57
2022/09/04 13:23:03;;;;;;;3.75;1.45;;;;;;;;;;5054986;28;20212;-58
2022/09/04 13:25:41;;;;;;;3.15;1.45;;;;;;;;;;5053257;28;20228;-57
2022/09/04 13:28:10;;;;;;;2.10;1.60;;;;;;;;;;5053444;28;20524;-58
2022/09/04 13:31:07;;;;;;;2.30;1.33;;;;;;;;;;5053124;28;20231;-58
2022/09/04 13:34:00;;;;;;;2.70;1.40;;;;;;;;;;5052192;28;20220;-57
2022/09/04 13:36:42;;;;;;;2.63;1.40;;;;;;;;;;5036087;28;20269;-57
2022/09/04 13:39:34;;;;;;;2.60;1.50;;;;;;;;;;5047503;28;20219;-58
2022/09/04 13:42:07;;;;;;;1.92;1.40;;;;;;;;;;5069088;28;20547;-57
2022/09/04 13:44:58;;;;;;;2.30;1.48;;;;;;;;;;5064625;28;20269;-56
2022/09/04 13:47:36;;;;;;;2.60;1.45;;;;;;;;;;5041511;28;20231;-57
2022/09/04 13:50:26;;;;;;;3.38;1.65;;;;;;;;;;5059299;28;20233;-58
2022/09/04 13:52:58;;;;;;;2.88;1.42;;;;;;;;;;5063370;28;20633;-58
2022/09/04 13:55:28;;;;;;;4.85;1.77;;;;;;;;;;5066108;28;20703;-59
2022/09/04 13:58:00;;;;;;;2.85;1.42;;;;;;;;;;5047600;28;20519;-58
2022/09/04 14:00:30;;;;;;;4.07;1.73;;;;;;;;;;5028265;28;20235;-58
2022/09/04 14:03:06;;;;;;;2.40;1.52;;;;;;;;;;5064539;28;20270;-57
2022/09/04 14:05:33;;;;;;;3.90;1.88;;;;;;;;;;5046869;28;20311;-58
2022/09/04 14:08:05;;;;;;;3.33;1.65;;;;;;;;;;5047845;28;20223;-58
2022/09/04 14:11:09;;;;;;;2.10;1.50;;;;;;;;;;5047864;28;20273;-57
2022/09/04 14:13:54;;;;;;;2.03;1.52;;;;;;;;;;5062582;28;20230;-58
2022/09/04 14:16:22;;;;;;;5.25;1.80;;;;;;;;;;5063567;28;20220;-58
2022/09/04 14:19:02;;;;;;;3.33;1.80;;;;;;;;;;5047868;28;20727;-58
2022/09/04 14:22:01;;;;;;;4.05;1.75;;;;;;;;;;5046692;28;20227;-57
2022/09/04 14:24:45;;;;;;;3.72;1.50;;;;;;;;;;5074255;28;20219;-58
2022/09/04 14:27:28;;;;;;;4.05;1.60;;;;;;;;;;5054755;28;20254;-58
2022/09/04 14:29:58;;;;;;;4.72;1.90;;;;;;;;;;5055312;28;20746;-58
2022/09/04 14:32:40;;;;;;;7.68;2.00;;;;;;;;;;5056511;28;20228;-57
2022/09/04 14:35:15;;;;;;;4.63;1.60;;;;;;;;;;5045525;28;20212;-58
2022/09/04 14:37:47;;;;;;;4.60;1.85;;;;;;;;;;5060867;28;20211;-57
2022/09/04 14:41:04;;;;;;;2.15;1.75;;;;;;;;;;5063963;28;20226;-58
2022/09/04 14:43:40;;;;;;;5.57;1.90;;;;;;;;;;5022059;28;20255;-57
2022/09/04 14:46:46;;;;;;;6.78;2.25;;;;;;;;;;5060323;28;20239;-58
2022/09/04 14:49:22;;;;;;;10.20;2.20;;;;;;;;;;5012414;28;20224;-58
2022/09/04 14:51:55;;;;;;;3.75;1.92;;;;;;;;;;5058202;28;20238;-58
2022/09/04 14:54:29;;;;;;;5.40;2.10;;;;;;;;;;5068561;28;20211;-58
2022/09/04 14:57:01;;;;;;;4.20;1.85;;;;;;;;;;5058792;28;20220;-58
2022/09/04 14:59:37;;;;;;;10.85;2.33;;;;;;;;;;5052347;28;20579;-57
2022/09/04 15:02:07;;;;;;;4.38;2.38;;;;;;;;;;5073044;28;20219;-56
2022/09/04 15:04:49;;;;;;;9.40;2.50;;;;;;;;;;5065395;28;20279;-58
2022/09/04 15:07:19;;;;;;;6.57;2.20;;;;;;;;;;5060006;28;20612;-55
2022/09/04 15:09:47;;;;;;;3.58;1.90;;;;;;;;;;5061774;28;20191;-55
2022/09/04 15:12:22;;;;;;;3.15;1.80;;;;;;;;;;5047767;28;20219;-56
2022/09/04 15:14:58;;;;;;;9.88;2.08;;;;;;;;;;5046493;28;20188;-57
2022/09/04 15:17:27;;;;;;;3.50;1.73;;;;;;;;;;5009355;28;20243;-57
2022/09/04 15:19:54;;;;;;;8.45;2.00;;;;;;;;;;5074482;28;20203;-57
2022/09/04 15:22:44;;;;;;;7.70;1.90;;;;;;;;;;5074787;28;20265;-56
2022/09/04 15:25:44;;;;;;;5.65;1.50;;;;;;;;;;5061147;28;20200;-55
2022/09/04 15:28:33;;;;;;;5.90;1.73;;;;;;;;;;5064139;28;20633;-55
2022/09/04 15:31:12;;;;;;;5.53;2.10;;;;;;;;;;5055628;28;20207;-57
2022/09/04 15:33:45;;;;;;;13.68;7.65;;;;;;;;;;5047941;28;20188;-56
2022/09/04 15:36:17;;;;;;;283.33;217.48;;;;;;;;;;5063272;28;20206;-56
2022/09/04 15:38:49;;;;;;;222.18;198.73;;;;;;;;;;5067447;28;20582;-55
2022/09/04 15:41:33;;;;;;;114.25;103.88;;;;;;;;;;5054558;28;20543;-55
2022/09/04 15:44:11;;;;;;;29.88;27.38;;;;;;;;;;5028585;28;20465;-57
2022/09/04 15:47:10;;;;;;;21.55;19.52;;;;;;;;;;5045256;28;20296;-54
2022/09/04 15:49:40;;;;;;;262.63;89.85;;;;;;;;;;5064117;28;20211;-54
2022/09/04 15:52:37;;;;;;;83.07;36.53;;;;;;;;;;5066644;28;20227;-54
2022/09/04 15:55:28;;;;;;;47.90;23.75;;;;;;;;;;5046393;28;20287;-54
2022/09/04 15:58:04;;;;;;;35.10;17.08;;;;;;;;;;5047855;28;20202;-56
2022/09/04 16:00:52;;;;;;;100.70;40.70;;;;;;;;;;5051457;28;20230;-48
2022/09/04 16:03:27;;;;;;;47.95;20.42;;;;;;;;;;5047245;28;20608;-56
2022/09/04 16:06:00;;;;;;;51.30;29.95;;;;;;;;;;5062938;28;20608;-57
2022/09/04 16:08:47;;;;;;;73.72;62.17;;;;;;;;;;5065522;28;20199;-55
2022/09/04 16:11:36;;;;;;;578.03;195.10;;;;;;;;;;5046096;28;20211;-54
2022/09/04 16:14:06;;;;;;;530.83;169.90;;;;;;;;;;5043270;28;20188;-57
2022/09/04 16:16:52;;;;;;;457.02;148.05;;;;;;;;;;5063155;28;20302;-58
2022/09/04 16:19:37;;;;;;;598.88;229.63;;;;;;;;;;5047008;28;20191;-58
2022/09/04 16:22:16;;;;;;;432.40;132.60;;;;;;;;;;5045242;28;20278;-58
2022/09/04 16:24:52;;;;;;;661.53;226.93;;;;;;;;;;5064292;28;20191;-57